Buoy 41560

sailwx.info

Track history (hours):
 
Tides and Currents Weather Stations Pressure Air Temp Water Temp Dewpoint Dewpoint Depression Visibility Wind Speed Wind Dir Waves Ship Positions

Drifting buoy 41560

Last reported at 2014-Sep-01 19:00 UTC. Time now 2014-Sep-01 21:17 UTC.
Position N 39°51' W 021°04'.

Barometer 1017.1 mb

Date/timePositionNaut miles runAvg speedWind from/ knotsBaromVisibWave heightAir tempDewpointWater temp
2014-Sep-01 19:00N 39°51' W 021°04'1 0.5 1017.1
2014-Sep-01 18:00N 39°50' W 021°04'1 0.6 1017.4
2014-Sep-01 16:00N 39°49' W 021°03'1 0.3 1018.3
2014-Sep-01 14:00N 39°49' W 021°02'1 0.7 1019.1
2014-Sep-01 12:00N 39°50' W 021°01'1 0.7 1019.6
2014-Sep-01 11:00N 39°51' W 021°01'2 0.9 1019.6
2014-Sep-01 09:00N 39°52' W 021°02'0 0.2 1019.2
2014-Sep-01 08:00N 39°52' W 021°03'1 0.7 1019.0
2014-Sep-01 07:00N 39°51' W 021°03'1 0.6 1018.6
2014-Sep-01 06:00N 39°51' W 021°02'1 0.7 1018.6
2014-Sep-01 05:00N 39°51' W 021°03'0 0.2 1018.6
2014-Sep-01 04:00N 39°51' W 021°03'0 0.0 1018.7
2014-Sep-01 03:00N 39°51' W 021°03'0 0.1 1019.0
2014-Sep-01 00:00N 39°51' W 021°03'1 0.3 1020.2
2014-Aug-31 22:00N 39°51' W 021°02'0 0.1 1020.6
2014-Aug-31 18:00N 39°51' W 021°02'0 0.1 1020.0
2014-Aug-31 17:00N 39°51' W 021°02'0 0.2 1020.0
2014-Aug-31 16:00N 39°51' W 021°02'0 0.5 1020.3
2014-Aug-31 15:00N 39°52' W 021°02'0 0.3 1020.6
2014-Aug-31 14:00N 39°52' W 021°01'1 0.9 1020.9
2014-Aug-31 13:00N 39°52' W 021°00'2 1.7 1021.1
2014-Aug-31 12:00N 39°54' W 021°02'1 0.4 1021.4
2014-Aug-31 10:00N 39°54' W 021°03'2 0.9 1021.4
2014-Aug-31 08:00N 39°54' W 021°05'0 0.0 1020.9
2014-Aug-31 07:00N 39°54' W 021°05'1 0.7 1020.4
2014-Aug-31 06:00N 39°54' W 021°05'0 0.1 1020.2
2014-Aug-31 04:00N 39°53' W 021°05'1 1.0 1020.3
2014-Aug-31 03:00N 39°53' W 021°04'2 0.6 1020.4
2014-Aug-30 23:00N 39°55' W 021°02'1 1.4 1021.4
2014-Aug-30 22:00N 39°56' W 021°01'2 1.0 1021.4
2014-Aug-30 20:00N 39°57' W 021°03'0 0.0 1020.7
2014-Aug-30 19:00N 39°57' W 021°03'1 1.1 1020.2
2014-Aug-30 18:00N 39°58' W 021°04'0 0.2 1020.2
2014-Aug-30 17:00N 39°58' W 021°05'0 0.3 1020.0
2014-Aug-30 16:00N 39°58' W 021°05'0 0.3 1019.8
2014-Aug-30 15:00N 39°58' W 021°05'0 0.1 1020.2
2014-Aug-30 14:00N 39°58' W 021°05'0 0.5 1020.3
2014-Aug-30 13:00N 39°57' W 021°05'0 0.3 1020.6
2014-Aug-30 12:00N 39°57' W 021°05'0 0.2 1020.9
2014-Aug-30 11:00N 39°58' W 021°05'1 1.0 1020.7
2014-Aug-30 10:00N 39°58' W 021°04'1 0.5 1020.5
2014-Aug-30 08:00N 39°58' W 021°06'1 0.6 1019.7
2014-Aug-30 07:00N 39°58' W 021°05'0 0.1 1019.4
2014-Aug-30 06:00N 39°58' W 021°05'0 0.5 1018.9
2014-Aug-30 05:00N 39°59' W 021°05'0 0.2 1018.8
2014-Aug-30 03:00N 39°59' W 021°05'2 0.4 1018.9
2014-Aug-29 23:00N 40°00' W 021°04'1 1.2 1019.4
2014-Aug-29 22:00N 40°01' W 021°05'1 1.0 1019.4
2014-Aug-29 21:00N 40°02' W 021°06'1 0.3 1019.3
2014-Aug-29 19:00N 40°02' W 021°07'1 0.3 1018.6
2014-Aug-29 17:00N 40°02' W 021°07'0 0.2 1018.7
2014-Aug-29 16:00N 40°02' W 021°07'0 0.3 1018.9
2014-Aug-29 15:00N 40°01' W 021°07'1 0.2 1019.3
2014-Aug-29 12:00N 40°02' W 021°06'1 1.0 1020.0
2014-Aug-29 11:00N 40°03' W 021°06'0 0.0 1020.1
2014-Aug-29 10:00N 40°03' W 021°06'1 1.1 1019.6
2014-Aug-29 09:00N 40°03' W 021°07'1 0.8 1019.1
2014-Aug-29 08:00N 40°03' W 021°06'0 0.3 1018.8
2014-Aug-29 07:00N 40°03' W 021°06'1 1.0 1018.2
2014-Aug-29 06:00N 40°04' W 021°06'1 1.3 1017.8
2014-Aug-29 05:00N 40°06' W 021°06'0 0.1 1017.6
2014-Aug-29 03:00N 40°06' W 021°06'0 0.0 1017.5
2014-Aug-29 02:00N 40°06' W 021°06'2 0.7 1017.6
2014-Aug-28 23:00N 40°07' W 021°08'1 0.7 1017.7
2014-Aug-28 22:00N 40°08' W 021°07'1 0.2 1017.9
2014-Aug-28 19:00N 40°07' W 021°06'0 0.0 1016.6
2014-Aug-28 18:00N 40°07' W 021°06'1 0.7 1016.6
2014-Aug-28 17:00N 40°07' W 021°06'2 1.0 1016.5
2014-Aug-28 15:00N 40°09' W 021°04'0 0.0 1017.0
2014-Aug-28 14:00N 40°09' W 021°04'0 0.1 1017.6
2014-Aug-28 13:00N 40°09' W 021°04'1 0.8 1018.1
2014-Aug-28 12:00N 40°10' W 021°04'1 0.5 1018.3
2014-Aug-28 11:00N 40°10' W 021°04'1 1.1 1018.4
2014-Aug-28 10:00N 40°11' W 021°05'1 0.3 1018.2
2014-Aug-28 08:00N 40°11' W 021°06'0 0.4 1017.6
2014-Aug-28 07:00N 40°11' W 021°06'0 0.5 1017.6
2014-Aug-28 06:00N 40°11' W 021°06'2 1.6 1017.4
2014-Aug-28 05:00N 40°11' W 021°08'0 0.0 1017.2
2014-Aug-28 04:00N 40°11' W 021°08'0 0.0 1017.6
2014-Aug-28 03:00N 40°11' W 021°08'0 0.0 1017.5
2014-Aug-27 23:00N 40°11' W 021°08'1 0.4 1019.2
2014-Aug-27 21:00N 40°11' W 021°08'1 0.7 1019.1
2014-Aug-27 20:00N 40°12' W 021°07'1 0.7 1018.9
2014-Aug-27 18:00N 40°12' W 021°08'1 0.7 1018.7
2014-Aug-27 17:00N 40°13' W 021°09'0 0.1 1018.9
2014-Aug-27 15:00N 40°13' W 021°08'2 0.9 1019.0
2014-Aug-27 13:00N 40°14' W 021°10'0 0.3 1019.3
2014-Aug-27 12:00N 40°14' W 021°10'2 0.4 1019.5
2014-Aug-27 08:00N 40°15' W 021°12'0 0.4 1018.8
2014-Aug-27 07:00N 40°16' W 021°12'1 1.0 1018.2
2014-Aug-27 06:00N 40°16' W 021°13'0 0.2 1017.6
2014-Aug-27 05:00N 40°16' W 021°13'0 0.4 1017.4
2014-Aug-27 04:00N 40°16' W 021°13'1 0.6 1017.2
2014-Aug-27 03:00N 40°16' W 021°13'0 0.0 1017.1
2014-Aug-27 02:00N 40°16' W 021°13'0 0.0 1017.3
2014-Aug-27 01:00N 40°16' W 021°13'0 0.5 1017.5
2014-Aug-27 00:00N 40°17' W 021°13'1 0.6 1017.8
2014-Aug-26 23:00N 40°17' W 021°12'1 0.9 1017.8
2014-Aug-26 22:00N 40°17' W 021°13'2 1.5 1017.6
2014-Aug-26 21:00N 40°19' W 021°12'2 1.8 1017.0
2014-Aug-26 20:00N 40°21' W 021°13'0 0.1 1016.6
2014-Aug-26 19:00N 40°20' W 021°13'1 1.4 1016.2
2014-Aug-26 18:00N 40°21' W 021°15'0 0.4 1016.2
2014-Aug-26 17:00N 40°21' W 021°15'1 1.5 1016.4
2014-Aug-26 16:00N 40°22' W 021°17'0 0.3 1016.7
2014-Aug-26 15:00N 40°22' W 021°17'2 0.8 1016.9
2014-Aug-26 13:00N 40°22' W 021°20'1 1.1 1017.7
2014-Aug-26 12:00N 40°21' W 021°21'0 0.5 1018.3
2014-Aug-26 11:00N 40°21' W 021°20'2 2.3 1018.6
2014-Aug-26 10:00N 40°23' W 021°23'1 0.3 1018.8
2014-Aug-26 07:00N 40°23' W 021°24'1 0.4 1018.5
2014-Aug-26 05:00N 40°22' W 021°25'1 0.8 1018.8
2014-Aug-26 04:00N 40°23' W 021°26'0 0.2 1019.2
2014-Aug-26 02:00N 40°23' W 021°26'0 0.3 1019.9
2014-Aug-26 01:00N 40°23' W 021°26'0 0.2 1020.5
2014-Aug-25 23:00N 40°23' W 021°27'1 1.1 1021.1
2014-Aug-25 22:00N 40°25' W 021°27'1 1.2 1021.3
2014-Aug-25 21:00N 40°25' W 021°25'3 1.5 1021.0
2014-Aug-25 19:00N 40°26' W 021°29'1 1.2 1020.5
2014-Aug-25 18:00N 40°26' W 021°30'1 1.1 1020.6
2014-Aug-25 17:00N 40°27' W 021°32'0 0.2 1020.8
2014-Aug-25 16:00N 40°26' W 021°32'0 0.2 1020.7
2014-Aug-25 15:00N 40°26' W 021°32'1 1.2 1020.9
2014-Aug-25 14:00N 40°26' W 021°34'1 0.5 1021.1
2014-Aug-25 12:00N 40°26' W 021°35'1 0.6 1021.2
2014-Aug-25 11:00N 40°26' W 021°34'1 1.0 1021.3
2014-Aug-25 10:00N 40°27' W 021°34'0 0.2 1021.2
2014-Aug-25 09:00N 40°27' W 021°34'0 0.0 1020.9
2014-Aug-25 08:00N 40°27' W 021°34'1 0.8 1020.6
2014-Aug-25 07:00N 40°28' W 021°35'1 0.6 1020.4
2014-Aug-25 06:00N 40°29' W 021°35'1 1.3 1020.1
2014-Aug-25 05:00N 40°29' W 021°36'0 0.4 1020.1
2014-Aug-25 04:00N 40°29' W 021°37'1 0.8 1020.5
2014-Aug-25 03:00N 40°29' W 021°38'0 0.0 1020.5
2014-Aug-25 02:00N 40°29' W 021°38'2 1.0 1020.7
2014-Aug-25 00:00N 40°30' W 021°40'0 0.3 1021.1
2014-Aug-24 23:00N 40°29' W 021°40'1 0.9 1021.0
2014-Aug-24 22:00N 40°30' W 021°41'1 0.8 1021.2
2014-Aug-24 21:00N 40°30' W 021°42'1 0.4 1020.9
2014-Aug-24 19:00N 40°30' W 021°43'0 0.1 1019.9
2014-Aug-24 18:00N 40°30' W 021°43'1 0.3 1020.1
2014-Aug-24 16:00N 40°30' W 021°43'0 0.4 1020.1
2014-Aug-24 15:00N 40°30' W 021°44'1 0.4 1020.2
2014-Aug-24 12:00N 40°32' W 021°44'1 0.7 1020.5
2014-Aug-24 11:00N 40°32' W 021°45'1 0.6 1020.5
2014-Aug-24 10:00N 40°32' W 021°45'1 0.7 1020.2
2014-Aug-24 08:00N 40°33' W 021°46'1 0.6 1019.9
2014-Aug-24 06:00N 40°34' W 021°48'1 0.7 1019.3
2014-Aug-24 05:00N 40°34' W 021°48'0 0.4 1019.2
2014-Aug-24 04:00N 40°33' W 021°49'1 0.4 1019.2
2014-Aug-24 02:00N 40°33' W 021°50'0 0.0 1019.7
2014-Aug-23 22:00N 40°33' W 021°50'0 0.2 1020.6
2014-Aug-23 21:00N 40°33' W 021°50'1 1.1 1020.4
2014-Aug-23 20:00N 40°34' W 021°50'0 0.1 1019.8
2014-Aug-23 19:00N 40°34' W 021°50'1 0.5 1019.5
2014-Aug-23 18:00N 40°34' W 021°51'1 0.4 1019.5
2014-Aug-23 16:00N 40°34' W 021°52'0 0.2 1019.3
2014-Aug-23 14:00N 40°34' W 021°52'0 0.4 1019.5
2014-Aug-23 13:00N 40°34' W 021°53'1 0.9 1019.7
2014-Aug-23 12:00N 40°34' W 021°54'1 0.7 1019.8
2014-Aug-23 11:00N 40°34' W 021°55'0 0.0 1019.8
2014-Aug-23 10:00N 40°34' W 021°55'1 0.8 1019.5
2014-Aug-23 09:00N 40°34' W 021°56'1 0.9 1019.3
2014-Aug-23 08:00N 40°34' W 021°57'1 0.6 1019.2
2014-Aug-23 07:00N 40°33' W 021°57'1 0.6 1019.3
2014-Aug-23 06:00N 40°32' W 021°57'0 0.4 1019.2
2014-Aug-23 05:00N 40°32' W 021°57'0 0.3 1019.3
2014-Aug-23 04:00N 40°32' W 021°56'1 0.2 1019.5
2014-Aug-23 00:00N 40°33' W 021°57'1 1.5 1021.1
2014-Aug-22 23:00N 40°33' W 021°55'1 1.3 1021.6
2014-Aug-22 22:00N 40°33' W 021°57'1 0.5 1021.6
2014-Aug-22 21:00N 40°33' W 021°57'0 0.2 1021.5
2014-Aug-22 19:00N 40°33' W 021°58'   1020.8
Track history (hours):
 
Tides and Currents Weather Stations Pressure Air Temp Water Temp Dewpoint Dewpoint Depression Visibility Wind Speed Wind Dir Waves Ship Positions

Drifting buoy 41560

Last reported at 2014-Sep-01 19:00 UTC. Time now 2014-Sep-01 21:17 UTC.
Position N 39°51' W 021°04'.

Barometer 1017.1 mb

Date/timePositionNaut miles runAvg speedWind from/ knotsBaromVisibWave heightAir tempDewpointWater temp
2014-Sep-01 19:00N 39°51' W 021°04'1 0.5 1017.1
2014-Sep-01 18:00N 39°50' W 021°04'1 0.6 1017.4
2014-Sep-01 16:00N 39°49' W 021°03'1 0.3 1018.3
2014-Sep-01 14:00N 39°49' W 021°02'1 0.7 1019.1
2014-Sep-01 12:00N 39°50' W 021°01'1 0.7 1019.6
2014-Sep-01 11:00N 39°51' W 021°01'2 0.9 1019.6
2014-Sep-01 09:00N 39°52' W 021°02'0 0.2 1019.2
2014-Sep-01 08:00N 39°52' W 021°03'1 0.7 1019.0
2014-Sep-01 07:00N 39°51' W 021°03'1 0.6 1018.6
2014-Sep-01 06:00N 39°51' W 021°02'1 0.7 1018.6
2014-Sep-01 05:00N 39°51' W 021°03'0 0.2 1018.6
2014-Sep-01 04:00N 39°51' W 021°03'0 0.0 1018.7
2014-Sep-01 03:00N 39°51' W 021°03'0 0.1 1019.0
2014-Sep-01 00:00N 39°51' W 021°03'1 0.3 1020.2
2014-Aug-31 22:00N 39°51' W 021°02'0 0.1 1020.6
2014-Aug-31 18:00N 39°51' W 021°02'0 0.1 1020.0
2014-Aug-31 17:00N 39°51' W 021°02'0 0.2 1020.0
2014-Aug-31 16:00N 39°51' W 021°02'0 0.5 1020.3
2014-Aug-31 15:00N 39°52' W 021°02'0 0.3 1020.6
2014-Aug-31 14:00N 39°52' W 021°01'1 0.9 1020.9
2014-Aug-31 13:00N 39°52' W 021°00'2 1.7 1021.1
2014-Aug-31 12:00N 39°54' W 021°02'1 0.4 1021.4
2014-Aug-31 10:00N 39°54' W 021°03'2 0.9 1021.4
2014-Aug-31 08:00N 39°54' W 021°05'0 0.0 1020.9
2014-Aug-31 07:00N 39°54' W 021°05'1 0.7 1020.4
2014-Aug-31 06:00N 39°54' W 021°05'0 0.1 1020.2
2014-Aug-31 04:00N 39°53' W 021°05'1 1.0 1020.3
2014-Aug-31 03:00N 39°53' W 021°04'2 0.6 1020.4
2014-Aug-30 23:00N 39°55' W 021°02'1 1.4 1021.4
2014-Aug-30 22:00N 39°56' W 021°01'2 1.0 1021.4
2014-Aug-30 20:00N 39°57' W 021°03'0 0.0 1020.7
2014-Aug-30 19:00N 39°57' W 021°03'1 1.1 1020.2
2014-Aug-30 18:00N 39°58' W 021°04'0 0.2 1020.2
2014-Aug-30 17:00N 39°58' W 021°05'0 0.3 1020.0
2014-Aug-30 16:00N 39°58' W 021°05'0 0.3 1019.8
2014-Aug-30 15:00N 39°58' W 021°05'0 0.1 1020.2
2014-Aug-30 14:00N 39°58' W 021°05'0 0.5 1020.3
2014-Aug-30 13:00N 39°57' W 021°05'0 0.3 1020.6
2014-Aug-30 12:00N 39°57' W 021°05'0 0.2 1020.9
2014-Aug-30 11:00N 39°58' W 021°05'1 1.0 1020.7
2014-Aug-30 10:00N 39°58' W 021°04'1 0.5 1020.5
2014-Aug-30 08:00N 39°58' W 021°06'1 0.6 1019.7
2014-Aug-30 07:00N 39°58' W 021°05'0 0.1 1019.4
2014-Aug-30 06:00N 39°58' W 021°05'0 0.5 1018.9
2014-Aug-30 05:00N 39°59' W 021°05'0 0.2 1018.8
2014-Aug-30 03:00N 39°59' W 021°05'2 0.4 1018.9
2014-Aug-29 23:00N 40°00' W 021°04'1 1.2 1019.4
2014-Aug-29 22:00N 40°01' W 021°05'1 1.0 1019.4
2014-Aug-29 21:00N 40°02' W 021°06'1 0.3 1019.3
2014-Aug-29 19:00N 40°02' W 021°07'1 0.3 1018.6
2014-Aug-29 17:00N 40°02' W 021°07'0 0.2 1018.7
2014-Aug-29 16:00N 40°02' W 021°07'0 0.3 1018.9
2014-Aug-29 15:00N 40°01' W 021°07'1 0.2 1019.3
2014-Aug-29 12:00N 40°02' W 021°06'1 1.0 1020.0
2014-Aug-29 11:00N 40°03' W 021°06'0 0.0 1020.1
2014-Aug-29 10:00N 40°03' W 021°06'1 1.1 1019.6
2014-Aug-29 09:00N 40°03' W 021°07'1 0.8 1019.1
2014-Aug-29 08:00N 40°03' W 021°06'0 0.3 1018.8
2014-Aug-29 07:00N 40°03' W 021°06'1 1.0 1018.2
2014-Aug-29 06:00N 40°04' W 021°06'1 1.3 1017.8
2014-Aug-29 05:00N 40°06' W 021°06'0 0.1 1017.6
2014-Aug-29 03:00N 40°06' W 021°06'0 0.0 1017.5
2014-Aug-29 02:00N 40°06' W 021°06'2 0.7 1017.6
2014-Aug-28 23:00N 40°07' W 021°08'1 0.7 1017.7
2014-Aug-28 22:00N 40°08' W 021°07'1 0.2 1017.9
2014-Aug-28 19:00N 40°07' W 021°06'0 0.0 1016.6
2014-Aug-28 18:00N 40°07' W 021°06'1 0.7 1016.6
2014-Aug-28 17:00N 40°07' W 021°06'2 1.0 1016.5
2014-Aug-28 15:00N 40°09' W 021°04'0 0.0 1017.0
2014-Aug-28 14:00N 40°09' W 021°04'0 0.1 1017.6
2014-Aug-28 13:00N 40°09' W 021°04'1 0.8 1018.1
2014-Aug-28 12:00N 40°10' W 021°04'1 0.5 1018.3
2014-Aug-28 11:00N 40°10' W 021°04'1 1.1 1018.4
2014-Aug-28 10:00N 40°11' W 021°05'1 0.3 1018.2
2014-Aug-28 08:00N 40°11' W 021°06'0 0.4 1017.6
2014-Aug-28 07:00N 40°11' W 021°06'0 0.5 1017.6
2014-Aug-28 06:00N 40°11' W 021°06'2 1.6 1017.4
2014-Aug-28 05:00N 40°11' W 021°08'0 0.0 1017.2
2014-Aug-28 04:00N 40°11' W 021°08'0 0.0 1017.6
2014-Aug-28 03:00N 40°11' W 021°08'0 0.0 1017.5
2014-Aug-27 23:00N 40°11' W 021°08'1 0.4 1019.2
2014-Aug-27 21:00N 40°11' W 021°08'1 0.7 1019.1
2014-Aug-27 20:00N 40°12' W 021°07'1 0.7 1018.9
2014-Aug-27 18:00N 40°12' W 021°08'1 0.7 1018.7
2014-Aug-27 17:00N 40°13' W 021°09'0 0.1 1018.9
2014-Aug-27 15:00N 40°13' W 021°08'2 0.9 1019.0
2014-Aug-27 13:00N 40°14' W 021°10'0 0.3 1019.3
2014-Aug-27 12:00N 40°14' W 021°10'2 0.4 1019.5
2014-Aug-27 08:00N 40°15' W 021°12'0 0.4 1018.8
2014-Aug-27 07:00N 40°16' W 021°12'1 1.0 1018.2
2014-Aug-27 06:00N 40°16' W 021°13'0 0.2 1017.6
2014-Aug-27 05:00N 40°16' W 021°13'0 0.4 1017.4
2014-Aug-27 04:00N 40°16' W 021°13'1 0.6 1017.2
2014-Aug-27 03:00N 40°16' W 021°13'0 0.0 1017.1
2014-Aug-27 02:00N 40°16' W 021°13'0 0.0 1017.3
2014-Aug-27 01:00N 40°16' W 021°13'0 0.5 1017.5
2014-Aug-27 00:00N 40°17' W 021°13'1 0.6 1017.8
2014-Aug-26 23:00N 40°17' W 021°12'1 0.9 1017.8
2014-Aug-26 22:00N 40°17' W 021°13'2 1.5 1017.6
2014-Aug-26 21:00N 40°19' W 021°12'2 1.8 1017.0
2014-Aug-26 20:00N 40°21' W 021°13'0 0.1 1016.6
2014-Aug-26 19:00N 40°20' W 021°13'1 1.4 1016.2
2014-Aug-26 18:00N 40°21' W 021°15'0 0.4 1016.2
2014-Aug-26 17:00N 40°21' W 021°15'1 1.5 1016.4
2014-Aug-26 16:00N 40°22' W 021°17'0 0.3 1016.7
2014-Aug-26 15:00N 40°22' W 021°17'2 0.8 1016.9
2014-Aug-26 13:00N 40°22' W 021°20'1 1.1 1017.7
2014-Aug-26 12:00N 40°21' W 021°21'0 0.5 1018.3
2014-Aug-26 11:00N 40°21' W 021°20'2 2.3 1018.6
2014-Aug-26 10:00N 40°23' W 021°23'1 0.3 1018.8
2014-Aug-26 07:00N 40°23' W 021°24'1 0.4 1018.5
2014-Aug-26 05:00N 40°22' W 021°25'1 0.8 1018.8
2014-Aug-26 04:00N 40°23' W 021°26'0 0.2 1019.2
2014-Aug-26 02:00N 40°23' W 021°26'0 0.3 1019.9
2014-Aug-26 01:00N 40°23' W 021°26'0 0.2 1020.5
2014-Aug-25 23:00N 40°23' W 021°27'1 1.1 1021.1
2014-Aug-25 22:00N 40°25' W 021°27'1 1.2 1021.3
2014-Aug-25 21:00N 40°25' W 021°25'3 1.5 1021.0
2014-Aug-25 19:00N 40°26' W 021°29'1 1.2 1020.5
2014-Aug-25 18:00N 40°26' W 021°30'1 1.1 1020.6
2014-Aug-25 17:00N 40°27' W 021°32'0 0.2 1020.8
2014-Aug-25 16:00N 40°26' W 021°32'0 0.2 1020.7
2014-Aug-25 15:00N 40°26' W 021°32'1 1.2 1020.9
2014-Aug-25 14:00N 40°26' W 021°34'1 0.5 1021.1
2014-Aug-25 12:00N 40°26' W 021°35'1 0.6 1021.2
2014-Aug-25 11:00N 40°26' W 021°34'1 1.0 1021.3
2014-Aug-25 10:00N 40°27' W 021°34'0 0.2 1021.2
2014-Aug-25 09:00N 40°27' W 021°34'0 0.0 1020.9
2014-Aug-25 08:00N 40°27' W 021°34'1 0.8 1020.6
2014-Aug-25 07:00N 40°28' W 021°35'1 0.6 1020.4
2014-Aug-25 06:00N 40°29' W 021°35'1 1.3 1020.1
2014-Aug-25 05:00N 40°29' W 021°36'0 0.4 1020.1
2014-Aug-25 04:00N 40°29' W 021°37'1 0.8 1020.5
2014-Aug-25 03:00N 40°29' W 021°38'0 0.0 1020.5
2014-Aug-25 02:00N 40°29' W 021°38'2 1.0 1020.7
2014-Aug-25 00:00N 40°30' W 021°40'0 0.3 1021.1
2014-Aug-24 23:00N 40°29' W 021°40'1 0.9 1021.0
2014-Aug-24 22:00N 40°30' W 021°41'1 0.8 1021.2
2014-Aug-24 21:00N 40°30' W 021°42'1 0.4 1020.9
2014-Aug-24 19:00N 40°30' W 021°43'0 0.1 1019.9
2014-Aug-24 18:00N 40°30' W 021°43'1 0.3 1020.1
2014-Aug-24 16:00N 40°30' W 021°43'0 0.4 1020.1
2014-Aug-24 15:00N 40°30' W 021°44'1 0.4 1020.2
2014-Aug-24 12:00N 40°32' W 021°44'1 0.7 1020.5
2014-Aug-24 11:00N 40°32' W 021°45'1 0.6 1020.5
2014-Aug-24 10:00N 40°32' W 021°45'1 0.7 1020.2
2014-Aug-24 08:00N 40°33' W 021°46'1 0.6 1019.9
2014-Aug-24 06:00N 40°34' W 021°48'1 0.7 1019.3
2014-Aug-24 05:00N 40°34' W 021°48'0 0.4 1019.2
2014-Aug-24 04:00N 40°33' W 021°49'1 0.4 1019.2
2014-Aug-24 02:00N 40°33' W 021°50'0 0.0 1019.7
2014-Aug-23 22:00N 40°33' W 021°50'0 0.2 1020.6
2014-Aug-23 21:00N 40°33' W 021°50'1 1.1 1020.4
2014-Aug-23 20:00N 40°34' W 021°50'0 0.1 1019.8
2014-Aug-23 19:00N 40°34' W 021°50'1 0.5 1019.5
2014-Aug-23 18:00N 40°34' W 021°51'1 0.4 1019.5
2014-Aug-23 16:00N 40°34' W 021°52'0 0.2 1019.3
2014-Aug-23 14:00N 40°34' W 021°52'0 0.4 1019.5
2014-Aug-23 13:00N 40°34' W 021°53'1 0.9 1019.7
2014-Aug-23 12:00N 40°34' W 021°54'1 0.7 1019.8
2014-Aug-23 11:00N 40°34' W 021°55'0 0.0 1019.8
2014-Aug-23 10:00N 40°34' W 021°55'1 0.8 1019.5
2014-Aug-23 09:00N 40°34' W 021°56'1 0.9 1019.3
2014-Aug-23 08:00N 40°34' W 021°57'1 0.6 1019.2
2014-Aug-23 07:00N 40°33' W 021°57'1 0.6 1019.3
2014-Aug-23 06:00N 40°32' W 021°57'0 0.4 1019.2
2014-Aug-23 05:00N 40°32' W 021°57'0 0.3 1019.3
2014-Aug-23 04:00N 40°32' W 021°56'1 0.2 1019.5
2014-Aug-23 00:00N 40°33' W 021°57'1 1.5 1021.1
2014-Aug-22 23:00N 40°33' W 021°55'1 1.3 1021.6
2014-Aug-22 22:00N 40°33' W 021°57'1 0.5 1021.6
2014-Aug-22 21:00N 40°33' W 021°57'0 0.2 1021.5
2014-Aug-22 19:00N 40°33' W 021°58'   1020.8

Dump ship's entire track history